createdAt,value
2018-07-23T00:00:17.594Z,0.00
2018-07-23T00:01:17.784Z,0.00
2018-07-23T00:02:18.001Z,0.00
2018-07-23T00:03:18.215Z,0.00
2018-07-23T00:04:18.425Z,0.00
2018-07-23T00:05:18.615Z,0.00
2018-07-23T00:06:18.827Z,0.00
2018-07-23T00:07:19.039Z,0.00
2018-07-23T00:08:19.237Z,0.00
2018-07-23T00:09:19.436Z,0.00
2018-07-23T00:10:19.649Z,0.00
2018-07-23T00:11:19.866Z,0.00
2018-07-23T00:12:20.067Z,0.00
2018-07-23T00:13:20.283Z,0.00
2018-07-23T00:14:20.467Z,0.00
2018-07-23T00:15:20.675Z,0.00
2018-07-23T00:16:20.857Z,0.00
2018-07-23T00:17:21.051Z,0.00
2018-07-23T00:18:21.245Z,0.00
2018-07-23T00:19:21.455Z,0.00
2018-07-23T00:20:21.669Z,0.00
2018-07-23T00:21:21.857Z,0.00
2018-07-23T00:22:22.054Z,0.00
2018-07-23T00:23:22.248Z,0.00
2018-07-23T00:24:22.438Z,0.00
2018-07-23T00:25:22.631Z,0.00
2018-07-23T00:26:22.841Z,0.00
2018-07-23T00:27:23.025Z,0.00
2018-07-23T00:29:55.255Z,0.00
2018-07-23T00:30:55.446Z,0.00
2018-07-23T00:31:55.638Z,0.00
2018-07-23T00:32:55.851Z,0.00
2018-07-23T00:33:56.043Z,0.00
2018-07-23T00:34:56.269Z,0.00
2018-07-23T00:35:56.467Z,0.00
2018-07-23T00:36:56.676Z,0.00
2018-07-23T00:37:56.970Z,0.00
2018-07-23T00:38:57.043Z,0.00
2018-07-23T00:39:57.229Z,0.00
2018-07-23T00:40:57.534Z,0.00
2018-07-23T00:41:57.618Z,0.00
2018-07-23T00:42:57.805Z,0.00
2018-07-23T00:45:29.983Z,0.00
2018-07-23T00:46:30.166Z,0.00
2018-07-23T00:47:30.354Z,0.00
2018-07-23T00:48:30.553Z,0.00
2018-07-23T00:49:30.743Z,0.00
2018-07-23T00:50:30.956Z,0.00
2018-07-23T00:51:31.143Z,0.00
2018-07-23T00:52:31.351Z,0.00
2018-07-23T00:53:31.567Z,0.00
2018-07-23T00:54:31.764Z,0.00
2018-07-23T00:55:31.975Z,0.00
2018-07-23T00:56:32.167Z,0.00
2018-07-23T00:57:32.352Z,0.00
2018-07-23T00:58:32.541Z,0.00
2018-07-23T00:59:32.739Z,0.00
2018-07-23T01:00:32.950Z,0.00
2018-07-23T01:01:33.151Z,0.00
2018-07-23T01:02:33.370Z,0.00
2018-07-23T01:03:33.569Z,0.00
2018-07-23T01:04:33.758Z,0.00
2018-07-23T01:05:33.956Z,0.00
2018-07-23T01:06:34.145Z,0.00
2018-07-23T01:07:34.369Z,0.00
2018-07-23T01:08:34.547Z,0.00
2018-07-23T01:09:34.752Z,0.00
2018-07-23T01:10:34.957Z,0.00
2018-07-23T01:11:35.146Z,0.00
2018-07-23T01:12:35.404Z,0.00
2018-07-23T01:13:35.485Z,0.00
2018-07-23T01:14:35.694Z,0.00
2018-07-23T01:15:35.882Z,0.00
2018-07-23T01:16:36.074Z,0.00
2018-07-23T01:19:08.357Z,0.00
2018-07-23T01:20:08.534Z,0.00
2018-07-23T01:21:08.744Z,0.00
2018-07-23T01:22:08.944Z,0.00
2018-07-23T01:23:09.158Z,0.00
2018-07-23T01:24:09.357Z,0.00
2018-07-23T01:25:09.544Z,0.00
2018-07-23T01:26:09.753Z,0.00
2018-07-23T01:27:09.956Z,0.00
2018-07-23T01:28:10.165Z,0.00
2018-07-23T01:29:10.413Z,0.00
2018-07-23T01:30:10.574Z,0.00
2018-07-23T01:31:10.778Z,0.00
2018-07-23T01:32:10.988Z,0.00
2018-07-23T01:33:11.184Z,0.00
2018-07-23T01:34:11.388Z,0.00
2018-07-23T01:36:43.592Z,0.00
2018-07-23T01:37:43.772Z,0.00
2018-07-23T01:38:43.973Z,0.00
2018-07-23T01:39:44.183Z,0.00
2018-07-23T01:40:44.386Z,0.00
2018-07-23T01:41:44.595Z,0.00
2018-07-23T01:42:44.807Z,0.00
2018-07-23T01:45:16.939Z,0.00
2018-07-23T01:46:17.120Z,0.00
2018-07-23T01:47:17.350Z,0.00
2018-07-23T01:48:17.546Z,0.00
2018-07-23T01:49:17.767Z,0.00
2018-07-23T01:50:17.957Z,0.00
2018-07-23T01:51:18.173Z,0.00
2018-07-23T01:52:18.373Z,0.00
2018-07-23T01:53:18.567Z,0.00
2018-07-23T01:54:18.776Z,0.00
2018-07-23T01:55:18.989Z,0.00
2018-07-23T01:56:19.168Z,0.00
2018-07-23T01:57:19.360Z,0.00
2018-07-23T01:58:19.570Z,0.00
2018-07-23T01:59:19.772Z,0.00
2018-07-23T02:00:19.949Z,0.00
2018-07-23T02:01:20.155Z,0.00
2018-07-23T02:02:20.357Z,0.00
2018-07-23T02:03:20.548Z,0.00
2018-07-23T02:04:20.768Z,0.00
2018-07-23T02:06:53.172Z,0.00
2018-07-23T02:07:53.093Z,0.00
2018-07-23T02:08:53.283Z,0.00
2018-07-23T02:09:53.500Z,0.00
2018-07-23T02:10:53.684Z,0.00
2018-07-23T02:11:53.869Z,0.00
2018-07-23T02:12:54.057Z,0.00
2018-07-23T02:13:54.253Z,0.00
2018-07-23T02:14:54.447Z,0.00
2018-07-23T02:15:54.638Z,0.00
2018-07-23T02:16:54.852Z,0.00
2018-07-23T02:17:55.053Z,0.00
2018-07-23T02:18:55.238Z,0.00
2018-07-23T02:19:55.426Z,0.00
2018-07-23T02:20:55.615Z,0.00
2018-07-23T02:21:55.808Z,0.00
2018-07-23T02:22:56.016Z,0.00
2018-07-23T02:23:56.224Z,0.00
2018-07-23T02:24:56.425Z,0.00
2018-07-23T02:25:56.613Z,0.00
2018-07-23T02:26:56.823Z,0.00
2018-07-23T02:27:57.035Z,0.00
2018-07-23T02:28:57.221Z,0.00
2018-07-23T02:29:57.423Z,0.00
2018-07-23T02:30:57.639Z,0.00
2018-07-23T02:31:57.846Z,0.00
2018-07-23T02:32:58.057Z,0.00
2018-07-23T02:33:58.254Z,0.00
2018-07-23T02:34:58.470Z,0.00
2018-07-23T02:35:58.680Z,0.00
2018-07-23T02:36:58.900Z,0.00
2018-07-23T02:37:59.114Z,0.00
2018-07-23T02:38:59.302Z,0.00
2018-07-23T02:39:59.495Z,0.00
2018-07-23T02:40:59.684Z,0.00
2018-07-23T02:41:59.899Z,0.00
2018-07-23T02:43:00.126Z,0.00
2018-07-23T02:44:00.301Z,0.00
2018-07-23T02:45:00.512Z,0.00
2018-07-23T02:46:00.700Z,0.00
2018-07-23T02:47:00.883Z,0.00
2018-07-23T02:48:01.079Z,0.00
2018-07-23T02:49:01.293Z,0.00
2018-07-23T02:50:01.498Z,0.00
2018-07-23T02:51:01.761Z,0.00
2018-07-23T02:52:01.882Z,0.00
2018-07-23T02:53:02.105Z,4.00
2018-07-23T02:54:02.291Z,4.00
2018-07-23T02:55:02.489Z,4.00
2018-07-23T02:56:02.683Z,0.00
2018-07-23T02:57:02.892Z,0.00
2018-07-23T02:58:03.101Z,4.00
2018-07-23T02:59:03.282Z,4.00
2018-07-23T03:00:03.485Z,4.00
2018-07-23T03:01:03.696Z,4.00
2018-07-23T03:02:03.892Z,4.00
2018-07-23T03:03:04.096Z,4.00
2018-07-23T03:04:04.307Z,4.00
2018-07-23T03:05:04.493Z,8.00
2018-07-23T03:06:04.685Z,8.00
2018-07-23T03:07:04.877Z,8.00
2018-07-23T03:08:05.071Z,8.00
2018-07-23T03:09:05.276Z,12.00
2018-07-23T03:10:05.484Z,12.00
2018-07-23T03:11:05.699Z,12.00
2018-07-23T03:12:05.925Z,16.00
2018-07-23T03:14:38.146Z,24.00
2018-07-23T03:15:38.327Z,24.00
2018-07-23T03:16:38.517Z,28.00
2018-07-23T03:17:38.703Z,32.00
2018-07-23T03:18:39.060Z,36.00
2018-07-23T03:19:39.122Z,40.00
2018-07-23T03:20:39.317Z,48.00
2018-07-23T03:21:39.569Z,52.00
2018-07-23T03:22:39.735Z,56.00
2018-07-23T03:23:39.917Z,64.00
2018-07-23T03:24:40.116Z,72.00
2018-07-23T03:25:40.313Z,76.00
2018-07-23T03:26:40.521Z,84.00
2018-07-23T03:27:40.735Z,92.00
2018-07-23T03:28:40.926Z,100.00
2018-07-23T03:29:41.198Z,112.00
2018-07-23T03:30:41.280Z,120.00
2018-07-23T03:31:41.485Z,136.00
2018-07-23T03:32:41.671Z,148.00
2018-07-23T03:33:41.873Z,160.00
2018-07-23T03:34:42.085Z,176.00
2018-07-23T03:35:42.296Z,188.00
2018-07-23T03:36:42.488Z,204.00
2018-07-23T03:37:42.681Z,224.00
2018-07-23T03:38:42.873Z,244.00
2018-07-23T03:39:43.118Z,264.00
2018-07-23T03:40:43.303Z,288.00
2018-07-23T03:41:43.507Z,312.00
2018-07-23T03:42:43.691Z,336.00
2018-07-23T03:43:43.886Z,360.00
2018-07-23T03:44:44.103Z,384.00
2018-07-23T03:45:44.320Z,412.00
2018-07-23T03:46:44.519Z,440.00
2018-07-23T03:47:44.713Z,472.00
2018-07-23T03:48:44.928Z,508.00
2018-07-23T03:49:45.140Z,548.00
2018-07-23T03:50:45.333Z,584.00
2018-07-23T03:51:45.524Z,628.00
2018-07-23T03:52:45.737Z,668.00
2018-07-23T03:53:45.926Z,716.00
2018-07-23T03:54:46.146Z,764.00
2018-07-23T03:55:46.354Z,812.00
2018-07-23T03:56:46.564Z,868.00
2018-07-23T03:57:46.774Z,920.00
2018-07-23T03:58:47.161Z,976.00
2018-07-23T03:59:47.224Z,1024.00
2018-07-23T04:00:47.416Z,1080.00
2018-07-23T04:01:47.625Z,1136.00
2018-07-23T04:04:19.770Z,1284.00
2018-07-23T04:05:19.944Z,1348.00
2018-07-23T04:06:20.137Z,1416.00
2018-07-23T04:07:20.347Z,1488.00
2018-07-23T04:08:20.546Z,1568.00
2018-07-23T04:09:20.735Z,1656.00
2018-07-23T04:10:20.923Z,1752.00
2018-07-23T04:11:21.135Z,1856.00
2018-07-23T04:12:21.329Z,1956.00
2018-07-23T04:13:21.540Z,2064.00
2018-07-23T04:14:21.748Z,2168.00
2018-07-23T04:15:21.959Z,2264.00
2018-07-23T04:16:22.165Z,2360.00
2018-07-23T04:17:22.363Z,2456.00
2018-07-23T04:18:22.556Z,2552.00
2018-07-23T04:19:22.761Z,2648.00
2018-07-23T04:20:22.950Z,2748.00
2018-07-23T04:21:23.151Z,2852.00
2018-07-23T04:22:23.361Z,2968.00
2018-07-23T04:23:23.539Z,3076.00
2018-07-23T04:24:23.733Z,3188.00
2018-07-23T04:25:23.944Z,3300.00
2018-07-23T04:26:24.152Z,3456.00
2018-07-23T04:27:24.344Z,3684.00
2018-07-23T04:28:24.544Z,3876.00
2018-07-23T04:29:24.754Z,4060.00
2018-07-23T04:30:24.945Z,4232.00
2018-07-23T04:31:25.158Z,4356.00
2018-07-23T04:32:25.345Z,4452.00
2018-07-23T04:33:25.541Z,4556.00
2018-07-23T04:34:25.730Z,4688.00
2018-07-23T04:35:25.939Z,4836.00
2018-07-23T04:37:58.157Z,5316.00
2018-07-23T04:38:58.273Z,5520.00
2018-07-23T04:39:58.476Z,5732.00
2018-07-23T04:40:58.664Z,5928.00
2018-07-23T04:41:58.872Z,6088.00
2018-07-23T04:42:59.079Z,6232.00
2018-07-23T04:43:59.294Z,6360.00
2018-07-23T04:44:59.507Z,6512.00
2018-07-23T04:45:59.690Z,6672.00
2018-07-23T04:46:59.880Z,6856.00
2018-07-23T04:48:00.088Z,7080.00
2018-07-23T04:49:00.297Z,7288.00
2018-07-23T04:50:00.489Z,7492.00
2018-07-23T04:51:00.703Z,7684.00
2018-07-23T04:52:00.914Z,7852.00
2018-07-23T04:53:01.117Z,8048.00
2018-07-23T04:54:01.332Z,8268.00
2018-07-23T04:55:01.548Z,8512.00
2018-07-23T04:56:01.755Z,8768.00
2018-07-23T04:57:02.015Z,9028.00
2018-07-23T04:58:02.164Z,9356.00
2018-07-23T04:59:02.375Z,9660.00
2018-07-23T05:00:02.588Z,9940.00
2018-07-23T05:01:02.802Z,10100.00
2018-07-23T05:02:03.005Z,10244.00
2018-07-23T05:03:03.193Z,10480.00
2018-07-23T05:04:03.447Z,10796.00
2018-07-23T05:05:03.588Z,11092.00
2018-07-23T05:06:03.790Z,11252.00
2018-07-23T05:08:36.168Z,11504.00
2018-07-23T05:09:36.342Z,11744.00
2018-07-23T05:10:36.526Z,11936.00
2018-07-23T05:11:36.719Z,12160.00
2018-07-23T05:12:36.907Z,12416.00
2018-07-23T05:13:37.131Z,12672.00
2018-07-23T05:14:37.320Z,12960.00
2018-07-23T05:15:37.520Z,13216.00
2018-07-23T05:16:37.746Z,13536.00
2018-07-23T05:17:37.931Z,13856.00
2018-07-23T05:18:38.153Z,13760.00
2018-07-23T05:19:38.361Z,13984.00
2018-07-23T05:20:38.566Z,13728.00
2018-07-23T05:21:38.766Z,14432.00
2018-07-23T05:22:38.963Z,14816.00
2018-07-23T05:23:39.294Z,15328.00
2018-07-23T05:24:39.440Z,15712.00
2018-07-23T05:25:39.579Z,16160.00
2018-07-23T05:26:39.779Z,16768.00
2018-07-23T05:27:39.995Z,17376.00
2018-07-23T05:28:40.210Z,18272.00
2018-07-23T05:29:40.429Z,19232.00
2018-07-23T05:30:40.651Z,19968.00
2018-07-23T05:31:40.868Z,20416.00
2018-07-23T05:32:41.030Z,20480.00
2018-07-23T05:33:41.219Z,20224.00
2018-07-23T05:34:41.417Z,20032.00
2018-07-23T05:35:41.631Z,19808.00
2018-07-23T05:36:41.847Z,19904.00
2018-07-23T05:37:42.047Z,19840.00
2018-07-23T05:38:42.236Z,20000.00
2018-07-23T05:39:42.442Z,19968.00
2018-07-23T05:40:42.663Z,20032.00
2018-07-23T05:41:42.863Z,20352.00
2018-07-23T05:42:43.081Z,21056.00
2018-07-23T05:43:43.294Z,21728.00
2018-07-23T05:44:43.521Z,22240.00
2018-07-23T05:45:43.731Z,22720.00
2018-07-23T05:46:43.940Z,23168.00
2018-07-23T05:47:44.147Z,23584.00
2018-07-23T05:48:44.351Z,24064.00
2018-07-23T05:49:44.541Z,24576.00
2018-07-23T05:50:44.748Z,24960.00
2018-07-23T05:51:44.970Z,25120.00
2018-07-23T05:52:45.171Z,25312.00
2018-07-23T05:53:45.362Z,25536.00
2018-07-23T05:54:45.566Z,25888.00
2018-07-23T05:55:45.785Z,26528.00
2018-07-23T05:56:45.991Z,27360.00
2018-07-23T05:57:46.225Z,28064.00
2018-07-23T05:58:46.430Z,28576.00
2018-07-23T05:59:46.628Z,28960.00
2018-07-23T06:00:46.802Z,29408.00
2018-07-23T06:01:47.027Z,29632.00
2018-07-23T06:02:47.237Z,29536.00
2018-07-23T06:03:47.465Z,29472.00
2018-07-23T06:06:19.653Z,30272.00
2018-07-23T06:07:19.778Z,31008.00
2018-07-23T06:08:19.992Z,31392.00
2018-07-23T06:10:52.157Z,33024.00
2018-07-23T06:11:52.338Z,33728.00
2018-07-23T06:12:52.530Z,34240.00
2018-07-23T06:13:52.751Z,34816.00
2018-07-23T06:14:52.961Z,35456.00
2018-07-23T06:15:53.173Z,35712.00
2018-07-23T06:16:53.379Z,35840.00
2018-07-23T06:17:53.599Z,36256.00
2018-07-23T06:18:53.814Z,36672.00
2018-07-23T06:19:54.029Z,36800.00
2018-07-23T06:20:54.237Z,37152.00
2018-07-23T06:21:54.433Z,37600.00
2018-07-23T06:22:54.643Z,37952.00
2018-07-23T06:23:54.859Z,38112.00
2018-07-23T06:24:55.042Z,38272.00
2018-07-23T06:25:55.243Z,38464.00
2018-07-23T06:26:55.453Z,38656.00
2018-07-23T06:27:55.664Z,38912.00
2018-07-23T06:28:55.879Z,39488.00
2018-07-23T06:29:56.121Z,40256.00
2018-07-23T06:30:56.281Z,41248.00
2018-07-23T06:31:56.476Z,42048.00
2018-07-23T06:32:56.689Z,42816.00
2018-07-23T06:33:56.905Z,43296.00
2018-07-23T06:34:57.087Z,44064.00
2018-07-23T06:35:57.291Z,44576.00
2018-07-23T06:36:57.507Z,45120.00
2018-07-23T06:37:57.731Z,45600.00
2018-07-23T06:38:57.938Z,45856.00
2018-07-23T06:39:58.163Z,46080.00
2018-07-23T06:40:58.376Z,46336.00
2018-07-23T06:41:58.586Z,46400.00
2018-07-23T06:42:58.802Z,46624.00
2018-07-23T06:43:59.021Z,46912.00
2018-07-23T06:44:59.228Z,47296.00
2018-07-23T06:45:59.442Z,47840.00
2018-07-23T06:46:59.660Z,48096.00
2018-07-23T06:47:59.878Z,48736.00
2018-07-23T06:49:00.070Z,48896.00
2018-07-23T06:50:00.288Z,48992.00
2018-07-23T06:51:00.482Z,48960.00
2018-07-23T06:52:00.684Z,49056.00
2018-07-23T06:53:00.907Z,48736.00
2018-07-23T06:54:01.166Z,48544.00
2018-07-23T06:55:01.344Z,48576.00
2018-07-23T06:56:01.563Z,48672.00
2018-07-23T06:57:01.762Z,48544.00
2018-07-23T06:58:01.975Z,48832.00
2018-07-23T06:59:02.179Z,48896.00
2018-07-23T07:00:02.402Z,48672.00
2018-07-23T07:01:02.625Z,48960.00
2018-07-23T07:02:02.832Z,49248.00
2018-07-23T07:03:03.049Z,49856.00
2018-07-23T07:04:03.290Z,50464.00
2018-07-23T07:05:03.492Z,51072.00
2018-07-23T07:06:03.692Z,51552.00
2018-07-23T07:07:03.913Z,51456.00
2018-07-23T07:08:04.116Z,52192.00
2018-07-23T07:09:04.332Z,52704.00
2018-07-23T07:10:04.524Z,52832.00
2018-07-23T07:11:04.742Z,53568.00
2018-07-23T07:12:04.962Z,53696.00
2018-07-23T07:13:05.190Z,53632.00
2018-07-23T07:14:05.389Z,53376.00
2018-07-23T07:15:05.592Z,53088.00
2018-07-23T07:16:05.798Z,53120.00
2018-07-23T07:17:06.000Z,53216.00
2018-07-23T07:18:06.229Z,53696.00
2018-07-23T07:19:06.416Z,53600.00
2018-07-23T07:20:06.615Z,54208.00
2018-07-23T07:21:06.820Z,54368.00
2018-07-23T07:22:07.041Z,54240.00
2018-07-23T07:23:07.263Z,53824.00
2018-07-23T07:24:07.482Z,53440.00
2018-07-23T07:25:07.702Z,53408.00
2018-07-23T07:26:07.931Z,54144.00
2018-07-23T07:27:08.121Z,54720.00
2018-07-23T07:29:40.528Z,56768.00
2018-07-23T07:30:40.461Z,57184.00
2018-07-23T07:31:40.677Z,57504.00
2018-07-23T07:32:40.896Z,58240.00
2018-07-23T07:33:41.105Z,58880.00
2018-07-23T07:34:41.371Z,58336.00
2018-07-23T07:35:41.530Z,58912.00
2018-07-23T07:36:41.732Z,59392.00
2018-07-23T07:37:41.955Z,60096.00
2018-07-23T07:38:42.176Z,60608.00
2018-07-23T07:39:42.400Z,60768.00
2018-07-23T07:40:42.622Z,60960.00
2018-07-23T07:41:42.834Z,61216.00
2018-07-23T07:42:43.146Z,61376.00
2018-07-23T07:43:43.214Z,62048.00
2018-07-23T07:44:43.417Z,63136.00
2018-07-23T07:45:43.639Z,63392.00
2018-07-23T07:46:43.844Z,64448.00
2018-07-23T07:47:44.069Z,65504.00
2018-07-23T07:48:44.288Z,65952.00
2018-07-23T07:49:44.502Z,66336.00
2018-07-23T07:50:44.721Z,67520.00
2018-07-23T07:51:44.933Z,68256.00
2018-07-23T07:52:45.142Z,68512.00
2018-07-23T07:53:45.347Z,69312.00
2018-07-23T07:54:45.546Z,69600.00
2018-07-23T07:55:45.755Z,70720.00
2018-07-23T07:56:45.976Z,70400.00
2018-07-23T07:57:46.186Z,69056.00
2018-07-23T07:58:46.428Z,68064.00
2018-07-23T07:59:46.596Z,67360.00
2018-07-23T08:00:46.813Z,67296.00
2018-07-23T08:01:47.020Z,67872.00
2018-07-23T08:02:47.230Z,69248.00
2018-07-23T08:03:47.450Z,70656.00
2018-07-23T08:04:47.654Z,71552.00
2018-07-23T08:05:47.877Z,71840.00
2018-07-23T08:06:48.092Z,70912.00
2018-07-23T08:07:48.283Z,69312.00
2018-07-23T08:08:48.501Z,68320.00
2018-07-23T08:09:48.724Z,67904.00
2018-07-23T08:10:48.946Z,67200.00
2018-07-23T08:11:49.142Z,68160.00
2018-07-23T08:12:49.377Z,69248.00
2018-07-23T08:13:49.607Z,70688.00
2018-07-23T08:14:49.838Z,70464.00
2018-07-23T08:15:50.110Z,70176.00
2018-07-23T08:16:50.309Z,69408.00
2018-07-23T08:17:50.552Z,67968.00
2018-07-23T08:18:50.750Z,67616.00
2018-07-23T08:19:50.945Z,68864.00
2018-07-23T08:20:51.154Z,69184.00
2018-07-23T08:21:51.366Z,70304.00
2018-07-23T08:22:51.572Z,71904.00
2018-07-23T08:23:51.801Z,73408.00
2018-07-23T08:24:52.021Z,73280.00
2018-07-23T08:25:52.246Z,73344.00
2018-07-23T08:28:24.446Z,72960.00
2018-07-23T08:29:24.622Z,74016.00
2018-07-23T08:30:24.823Z,74720.00
2018-07-23T08:31:25.030Z,75616.00
2018-07-23T08:32:25.264Z,76544.00
2018-07-23T08:33:25.457Z,75456.00
2018-07-23T08:34:25.685Z,76800.00
2018-07-23T08:35:25.883Z,76544.00
2018-07-23T08:36:26.103Z,76160.00
2018-07-23T08:37:26.322Z,76000.00
2018-07-23T08:38:26.574Z,76160.00
2018-07-23T08:39:26.789Z,75872.00
2018-07-23T08:40:27.000Z,74208.00
2018-07-23T08:41:27.220Z,70048.00
2018-07-23T08:42:27.508Z,74208.00
2018-07-23T08:43:27.627Z,73952.00
2018-07-23T08:44:27.843Z,74144.00
2018-07-23T08:45:28.051Z,72960.00
2018-07-23T08:46:28.259Z,71840.00
2018-07-23T08:47:28.490Z,71392.00
2018-07-23T08:48:28.708Z,70656.00
2018-07-23T08:51:00.924Z,70784.00
2018-07-23T08:52:01.109Z,69856.00
2018-07-23T08:53:01.481Z,70848.00
2018-07-23T08:54:01.541Z,69600.00
2018-07-23T08:55:01.782Z,70592.00
2018-07-23T08:56:02.054Z,71200.00
2018-07-23T08:57:02.215Z,68576.00
2018-07-23T08:58:02.411Z,70432.00
2018-07-23T08:59:02.623Z,73280.00
2018-07-23T09:00:02.840Z,71712.00
2018-07-23T09:01:03.043Z,73632.00
2018-07-23T09:02:03.264Z,75072.00
2018-07-23T09:03:03.465Z,76064.00
2018-07-23T09:04:03.664Z,73792.00
2018-07-23T09:05:03.894Z,74272.00
2018-07-23T09:06:04.101Z,73568.00
2018-07-23T09:07:04.337Z,73408.00
2018-07-23T09:08:04.561Z,73600.00
2018-07-23T09:09:04.783Z,68256.00
2018-07-23T09:10:04.991Z,27584.00
2018-07-23T09:11:05.242Z,23776.00
2018-07-23T09:12:05.423Z,24416.00
2018-07-23T09:14:37.609Z,55968.00
2018-07-23T09:15:37.798Z,72000.00
2018-07-23T09:16:37.998Z,48672.00
2018-07-23T09:17:38.198Z,74272.00
2018-07-23T09:18:38.404Z,72032.00
2018-07-23T09:19:38.630Z,72896.00
2018-07-23T09:20:38.828Z,72736.00
2018-07-23T09:21:39.062Z,28064.00
2018-07-23T09:22:39.273Z,67712.00
2018-07-23T09:23:39.509Z,68928.00
2018-07-23T09:24:39.720Z,69312.00
2018-07-23T09:25:39.924Z,75264.00
2018-07-23T09:26:40.137Z,74464.00
2018-07-23T09:27:40.334Z,74720.00
2018-07-23T09:28:40.565Z,77088.00
2018-07-23T09:29:40.784Z,72192.00
2018-07-23T09:30:41.013Z,74240.00
2018-07-23T09:31:41.230Z,39168.00
2018-07-23T09:32:41.436Z,26496.00
2018-07-23T09:33:41.664Z,27008.00
2018-07-23T09:34:41.882Z,41760.00
2018-07-23T09:35:42.109Z,32896.00
2018-07-23T09:36:42.327Z,68608.00
2018-07-23T09:37:42.541Z,74688.00
2018-07-23T09:40:14.864Z,66048.00
2018-07-23T09:41:15.060Z,73792.00
2018-07-23T09:42:15.283Z,70752.00
2018-07-23T09:43:15.492Z,66208.00
2018-07-23T09:44:15.701Z,56832.00
2018-07-23T09:45:15.926Z,66688.00
2018-07-23T09:46:16.139Z,70176.00
2018-07-23T09:47:16.352Z,72960.00
2018-07-23T09:48:16.574Z,54304.00
2018-07-23T09:49:16.784Z,31904.00
2018-07-23T09:50:17.001Z,26880.00
2018-07-23T09:51:17.202Z,27456.00
2018-07-23T09:52:17.431Z,25664.00
2018-07-23T09:53:17.666Z,24832.00
2018-07-23T09:54:17.888Z,61664.00
2018-07-23T09:55:18.101Z,26464.00
2018-07-23T09:56:18.313Z,23872.00
2018-07-23T09:57:18.523Z,23712.00
2018-07-23T09:58:18.745Z,23584.00
2018-07-23T09:59:18.970Z,22400.00
2018-07-23T10:00:19.296Z,21440.00
2018-07-23T10:01:19.395Z,21088.00
2018-07-23T10:02:19.598Z,20992.00
2018-07-23T10:03:19.942Z,21856.00
2018-07-23T10:04:20.017Z,27360.00
2018-07-23T10:05:20.233Z,26016.00
2018-07-23T10:06:20.440Z,30944.00
2018-07-23T10:07:20.674Z,69344.00
2018-07-23T10:08:20.885Z,69120.00
2018-07-23T10:09:21.085Z,69184.00
2018-07-23T10:10:21.286Z,69984.00
2018-07-23T10:11:21.507Z,70304.00
2018-07-23T10:12:21.725Z,70816.00
2018-07-23T10:13:21.951Z,70176.00
2018-07-23T10:14:22.152Z,65856.00
2018-07-23T10:15:22.376Z,30208.00
2018-07-23T10:16:22.569Z,68512.00
2018-07-23T10:17:22.820Z,66880.00
2018-07-23T10:18:22.983Z,64160.00
2018-07-23T10:19:23.295Z,62816.00
2018-07-23T10:20:23.377Z,63680.00
2018-07-23T10:21:23.586Z,63200.00
2018-07-23T10:22:23.841Z,63808.00
2018-07-23T10:23:24.060Z,62272.00
2018-07-23T10:24:24.279Z,60896.00
2018-07-23T10:25:24.475Z,59936.00
2018-07-23T10:26:24.676Z,56704.00
2018-07-23T10:27:24.874Z,24608.00
2018-07-23T10:28:25.084Z,22400.00
2018-07-23T10:29:25.326Z,62048.00
2018-07-23T10:30:25.500Z,61056.00
2018-07-23T10:31:25.727Z,60608.00
2018-07-23T10:32:25.947Z,52480.00
2018-07-23T10:33:26.157Z,59904.00
2018-07-23T10:34:26.359Z,58464.00
2018-07-23T10:35:26.597Z,57856.00
2018-07-23T10:36:26.831Z,57984.00
2018-07-23T10:37:27.039Z,57408.00
2018-07-23T10:38:27.237Z,55936.00
2018-07-23T10:39:27.439Z,54720.00
2018-07-23T10:40:27.661Z,53120.00
2018-07-23T10:41:27.871Z,50496.00
2018-07-23T10:42:28.070Z,22144.00
2018-07-23T10:43:28.294Z,21376.00
2018-07-23T10:44:28.506Z,49120.00
2018-07-23T10:45:28.706Z,38176.00
2018-07-23T10:46:28.906Z,28160.00
2018-07-23T10:47:29.136Z,21856.00
2018-07-23T10:48:29.344Z,25344.00
2018-07-23T10:49:29.574Z,25472.00
2018-07-23T10:50:29.799Z,25504.00
2018-07-23T10:51:29.993Z,25248.00
2018-07-23T10:52:30.204Z,25376.00
2018-07-23T10:53:30.415Z,25440.00
2018-07-23T10:54:30.637Z,24800.00
2018-07-23T10:55:30.845Z,23680.00
2018-07-23T10:56:31.064Z,24640.00
2018-07-23T10:57:31.262Z,24384.00
2018-07-23T10:58:31.483Z,24064.00
2018-07-23T11:01:03.639Z,22976.00
2018-07-23T11:02:03.826Z,22720.00
2018-07-23T11:03:04.039Z,22368.00
2018-07-23T11:04:04.243Z,22144.00
2018-07-23T11:05:04.455Z,21920.00
2018-07-23T11:06:04.654Z,21792.00
2018-07-23T11:07:04.874Z,21856.00
2018-07-23T11:08:05.090Z,21920.00
2018-07-23T11:09:05.335Z,21920.00
2018-07-23T11:10:05.546Z,21728.00
2018-07-23T11:11:05.777Z,21568.00
2018-07-23T11:12:05.984Z,21600.00
2018-07-23T11:13:06.189Z,21600.00
2018-07-23T11:14:06.390Z,21568.00
2018-07-23T11:15:06.625Z,21312.00
2018-07-23T11:16:06.828Z,21152.00
2018-07-23T11:17:07.037Z,20896.00
2018-07-23T11:18:07.247Z,20608.00
2018-07-23T11:19:07.502Z,20288.00
2018-07-23T11:20:07.680Z,20000.00
2018-07-23T11:22:39.830Z,19552.00
2018-07-23T11:23:40.016Z,19616.00
2018-07-23T11:24:45.443Z,19360.00
2018-07-23T11:25:40.663Z,19136.00
2018-07-23T11:26:40.775Z,18944.00
2018-07-23T11:27:40.871Z,18656.00
2018-07-23T11:28:41.090Z,18400.00
2018-07-23T11:29:41.336Z,18144.00
2018-07-23T11:30:41.463Z,17856.00
2018-07-23T11:31:41.684Z,17696.00
2018-07-23T11:32:41.889Z,17600.00
2018-07-23T11:35:14.226Z,17568.00
2018-07-23T11:36:14.415Z,17600.00
2018-07-23T11:37:14.635Z,17568.00
2018-07-23T11:38:14.845Z,17472.00
2018-07-23T11:39:15.064Z,17600.00
2018-07-23T11:40:15.266Z,17472.00
2018-07-23T11:41:15.451Z,17472.00
2018-07-23T11:42:15.654Z,17344.00
2018-07-23T11:43:15.895Z,17280.00
2018-07-23T11:44:16.095Z,17344.00
2018-07-23T11:45:16.347Z,17376.00
2018-07-23T11:46:24.916Z,17408.00
2018-07-23T11:47:16.836Z,17536.00
2018-07-23T11:48:16.970Z,17696.00
2018-07-23T11:49:17.178Z,17472.00
2018-07-23T11:50:17.395Z,17280.00
2018-07-23T11:51:17.593Z,17024.00
2018-07-23T11:52:17.796Z,16768.00
2018-07-23T11:53:18.104Z,16544.00
2018-07-23T11:54:18.236Z,16320.00
2018-07-23T11:55:18.430Z,16480.00
2018-07-23T11:56:18.645Z,16448.00
2018-07-23T11:57:18.866Z,16448.00
2018-07-23T11:58:19.172Z,16416.00
2018-07-23T11:59:19.252Z,16192.00
2018-07-23T12:01:51.480Z,13300.00
2018-07-23T12:02:51.586Z,12892.00
2018-07-23T12:03:51.787Z,12520.00
2018-07-23T12:04:51.986Z,12332.00
2018-07-23T12:05:52.182Z,12400.00
2018-07-23T12:06:52.408Z,12404.00
2018-07-23T12:07:52.610Z,12220.00
2018-07-23T12:10:24.902Z,11596.00
2018-07-23T12:11:25.094Z,11336.00
2018-07-23T12:12:25.323Z,11164.00
2018-07-23T12:13:25.502Z,10912.00
2018-07-23T12:14:25.703Z,11420.00
2018-07-23T12:15:25.923Z,12488.00
2018-07-23T12:16:26.148Z,12644.00
2018-07-23T12:17:26.419Z,13032.00
2018-07-23T12:18:26.589Z,12120.00
2018-07-23T12:19:26.813Z,12488.00
2018-07-23T12:20:27.021Z,14752.00
2018-07-23T12:21:27.236Z,15040.00
2018-07-23T12:22:27.504Z,14944.00
2018-07-23T12:23:27.653Z,13032.00
2018-07-23T12:24:27.798Z,14880.00
2018-07-23T12:25:28.026Z,15328.00
2018-07-23T12:26:28.235Z,15552.00
2018-07-23T12:27:28.444Z,15584.00
2018-07-23T12:28:28.666Z,15520.00
2018-07-23T12:29:28.883Z,15296.00
2018-07-23T12:30:29.091Z,13344.00
2018-07-23T12:31:29.294Z,13864.00
2018-07-23T12:32:29.562Z,14072.00
2018-07-23T12:33:29.743Z,15200.00
2018-07-23T12:34:29.941Z,13524.00
2018-07-23T12:35:30.145Z,14288.00
2018-07-23T12:36:30.357Z,14280.00
2018-07-23T12:37:30.575Z,13340.00
2018-07-23T12:38:30.786Z,12792.00
2018-07-23T12:39:31.025Z,14008.00
2018-07-23T12:40:31.223Z,14004.00
2018-07-23T12:41:31.522Z,14264.00
2018-07-23T12:42:31.652Z,14720.00
2018-07-23T12:43:31.885Z,14784.00
2018-07-23T12:44:32.090Z,14656.00
2018-07-23T12:45:32.281Z,14784.00
2018-07-23T12:46:32.486Z,14912.00